Mount Burr Forest Reserve, South Australia

4:54 AM CST on September 03, 2014 (GMT +0930)
Mount Gambier | Change Station
CLOSE
Current Station
Airport
Location: Mount Gambier Airport,
Elevation: 210 ft
Nearby Weather Stations

Elev 210 ft 37.75 °S, 140.79 °E | Updated 11 minutes ago

Scattered Clouds
Scattered Clouds
41 °F
Feels Like 41 °F
N
0
Wind Variable Wind from North

Today
High -- | Low -- °F
--% Chance of Precip.
Yesterday
High -- | Low -- °F
Precip. -- in
6:25 AM 5:47 PM
First Quarter, 54% visible
Pressure 30.24 in
Visibility 3.1 miles
Clouds Scattered Clouds 4900 ft
Dew Point 39 °F
Humidity 93%
Rainfall 0.00 in
Snow Depth Not available.
UV 0 out of 12
Pollen Not available.
Air Quality Not available.
Flu Activity Not available.
SPECI YMTG 021913Z AUTO 00000KT 5000 // SCT049 05/04 Q1024

More Conditions Fewer Conditions

Pressure 30.24 in
Visibility 3.1 miles
Clouds Scattered Clouds 4900 ft
Dew Point 39 °F
Humidity 93%
Rainfall 0.00 in
Snow Depth Not available.
UV 0 out of 12
Pollen Not available.
Air Quality Not available.
Flu Activity Not available.
SPECI YMTG 021913Z AUTO 00000KT 5000 // SCT049 05/04 Q1024

More Conditions Fewer Conditions

10-Day Weather Forecast

Almanac

Astronomy

Sep. 03, 2014 Rise Set
Actual Time 6:25 AM CST 5:47 PM CST
Civil Twilight 5:59 AM CST 6:13 PM CST
Nautical Twilight 5:29 AM CST 6:44 PM CST
Astronomical Twilight 4:59 AM CST 7:14 PM CST
Moon 11:32 AM CST (9/3) 1:03 AM CST (9/3)
Length of Visible Light 12h 14m
Length of Day
11h 22m
Tomorrow will be 2m 15s longer.
First Quarter, 54% of the Moon is Illuminated
Sep 2
First Quarter
Sep 8
Full
Sep 15
Last Quarter
Sep 24
New
Oct 1
First Quarter

Yesterday's Extremes

Country Highs Country Lows

Community

WunderPhotos

Upload Photos

1,749,748 photos uploaded!

WunderBlogs® & News

By Dr. Jeff Masters
Director of Meteorology, Weather Underground
By Kari Strenfel
Meteorologist, Weather Underground
By Christopher C. Burt
Weather Historian, Weather Underground
September 2, 2014
September 2, 2014
September 2, 2014

Nearby

Snow Depth

Not available.

Earthquake Activity

City Distance Mag. Time & Date
No recent earthquake activity has been reported nearby.
Minimum magnitude displayed is 2.5.

Coastal Water Temperatures

Place Temperature
No Stations Reporting

Nearby Weather Stations